sensor_id;sensor_type;location;lat;lon;timestamp;P1;durP1;ratioP1;P2;durP2;ratioP2
30247;SDS011;17063;50.892;4.702;2024-02-26T00:00:23;1.63;;;0.80;;
30247;SDS011;17063;50.892;4.702;2024-02-26T00:02:51;0.97;;;0.87;;
30247;SDS011;17063;50.892;4.702;2024-02-26T00:05:18;1.00;;;0.80;;
30247;SDS011;17063;50.892;4.702;2024-02-26T00:07:45;1.07;;;0.97;;
30247;SDS011;17063;50.892;4.702;2024-02-26T00:10:13;1.20;;;1.03;;
30247;SDS011;17063;50.892;4.702;2024-02-26T00:12:40;0.80;;;0.80;;
30247;SDS011;17063;50.892;4.702;2024-02-26T00:15:08;1.47;;;0.87;;
30247;SDS011;17063;50.892;4.702;2024-02-26T00:17:35;2.07;;;1.10;;
30247;SDS011;17063;50.892;4.702;2024-02-26T00:20:03;1.50;;;1.30;;
30247;SDS011;17063;50.892;4.702;2024-02-26T00:22:34;2.10;;;1.10;;
30247;SDS011;17063;50.892;4.702;2024-02-26T00:25:02;2.07;;;0.93;;
30247;SDS011;17063;50.892;4.702;2024-02-26T00:27:29;3.37;;;1.20;;
30247;SDS011;17063;50.892;4.702;2024-02-26T00:29:55;1.70;;;0.80;;
30247;SDS011;17063;50.892;4.702;2024-02-26T00:32:22;0.93;;;0.90;;
30247;SDS011;17063;50.892;4.702;2024-02-26T00:34:49;2.13;;;0.90;;
30247;SDS011;17063;50.892;4.702;2024-02-26T00:37:17;1.23;;;1.10;;
30247;SDS011;17063;50.892;4.702;2024-02-26T00:39:47;2.20;;;0.90;;
30247;SDS011;17063;50.892;4.702;2024-02-26T00:42:16;1.07;;;0.93;;
30247;SDS011;17063;50.892;4.702;2024-02-26T00:44:43;1.00;;;1.00;;
30247;SDS011;17063;50.892;4.702;2024-02-26T00:47:11;1.87;;;1.10;;
30247;SDS011;17063;50.892;4.702;2024-02-26T00:49:38;4.23;;;0.97;;
30247;SDS011;17063;50.892;4.702;2024-02-26T00:52:05;3.13;;;0.93;;
30247;SDS011;17063;50.892;4.702;2024-02-26T00:54:32;1.03;;;0.90;;
30247;SDS011;17063;50.892;4.702;2024-02-26T00:56:59;0.80;;;0.80;;
30247;SDS011;17063;50.892;4.702;2024-02-26T00:59:26;1.60;;;1.10;;
30247;SDS011;17063;50.892;4.702;2024-02-26T01:01:52;1.00;;;0.90;;
30247;SDS011;17063;50.892;4.702;2024-02-26T01:04:19;1.37;;;0.93;;
30247;SDS011;17063;50.892;4.702;2024-02-26T01:06:46;1.77;;;1.00;;
30247;SDS011;17063;50.892;4.702;2024-02-26T01:09:13;1.97;;;1.00;;
30247;SDS011;17063;50.892;4.702;2024-02-26T01:11:41;2.23;;;0.87;;
30247;SDS011;17063;50.892;4.702;2024-02-26T01:14:08;1.07;;;0.97;;
30247;SDS011;17063;50.892;4.702;2024-02-26T01:16:35;1.57;;;1.07;;
30247;SDS011;17063;50.892;4.702;2024-02-26T01:19:02;1.30;;;0.73;;
30247;SDS011;17063;50.892;4.702;2024-02-26T01:21:29;3.73;;;1.00;;
30247;SDS011;17063;50.892;4.702;2024-02-26T01:23:56;0.93;;;0.90;;
30247;SDS011;17063;50.892;4.702;2024-02-26T01:26:23;2.17;;;0.87;;
30247;SDS011;17063;50.892;4.702;2024-02-26T01:28:50;2.17;;;0.97;;
30247;SDS011;17063;50.892;4.702;2024-02-26T01:31:18;2.57;;;0.90;;
30247;SDS011;17063;50.892;4.702;2024-02-26T01:33:45;0.97;;;0.83;;
30247;SDS011;17063;50.892;4.702;2024-02-26T01:36:12;0.67;;;0.60;;
30247;SDS011;17063;50.892;4.702;2024-02-26T01:38:39;0.93;;;0.83;;
30247;SDS011;17063;50.892;4.702;2024-02-26T01:41:06;2.80;;;1.00;;
30247;SDS011;17063;50.892;4.702;2024-02-26T01:43:33;1.80;;;1.00;;
30247;SDS011;17063;50.892;4.702;2024-02-26T01:46:00;0.73;;;0.70;;
30247;SDS011;17063;50.892;4.702;2024-02-26T01:48:29;1.03;;;0.80;;
30247;SDS011;17063;50.892;4.702;2024-02-26T01:50:56;0.87;;;0.80;;
30247;SDS011;17063;50.892;4.702;2024-02-26T01:53:23;1.27;;;0.80;;
30247;SDS011;17063;50.892;4.702;2024-02-26T01:55:51;4.27;;;1.80;;
30247;SDS011;17063;50.892;4.702;2024-02-26T01:58:17;2.30;;;0.77;;
30247;SDS011;17063;50.892;4.702;2024-02-26T02:00:44;0.93;;;0.63;;
30247;SDS011;17063;50.892;4.702;2024-02-26T02:03:11;3.90;;;0.70;;
30247;SDS011;17063;50.892;4.702;2024-02-26T02:05:38;2.57;;;0.90;;
30247;SDS011;17063;50.892;4.702;2024-02-26T02:08:10;2.70;;;0.80;;
30247;SDS011;17063;50.892;4.702;2024-02-26T02:10:41;1.37;;;0.90;;
30247;SDS011;17063;50.892;4.702;2024-02-26T02:13:09;0.87;;;0.70;;
30247;SDS011;17063;50.892;4.702;2024-02-26T02:15:36;3.73;;;1.10;;
30247;SDS011;17063;50.892;4.702;2024-02-26T02:18:02;0.93;;;0.90;;
30247;SDS011;17063;50.892;4.702;2024-02-26T02:20:33;0.83;;;0.83;;
30247;SDS011;17063;50.892;4.702;2024-02-26T02:23:00;1.17;;;0.70;;
30247;SDS011;17063;50.892;4.702;2024-02-26T02:25:28;2.43;;;0.73;;
30247;SDS011;17063;50.892;4.702;2024-02-26T02:27:55;0.73;;;0.73;;
30247;SDS011;17063;50.892;4.702;2024-02-26T02:30:26;2.00;;;0.70;;
30247;SDS011;17063;50.892;4.702;2024-02-26T02:32:55;0.80;;;0.80;;
30247;SDS011;17063;50.892;4.702;2024-02-26T02:35:22;1.70;;;0.90;;
30247;SDS011;17063;50.892;4.702;2024-02-26T02:37:50;2.23;;;0.90;;
30247;SDS011;17063;50.892;4.702;2024-02-26T02:40:19;0.80;;;0.70;;
30247;SDS011;17063;50.892;4.702;2024-02-26T02:42:46;3.60;;;1.30;;
30247;SDS011;17063;50.892;4.702;2024-02-26T02:45:12;2.13;;;0.93;;
30247;SDS011;17063;50.892;4.702;2024-02-26T02:47:39;2.30;;;1.03;;
30247;SDS011;17063;50.892;4.702;2024-02-26T02:50:06;1.37;;;1.03;;
30247;SDS011;17063;50.892;4.702;2024-02-26T02:52:33;2.50;;;1.00;;
30247;SDS011;17063;50.892;4.702;2024-02-26T02:55:01;4.63;;;1.40;;
30247;SDS011;17063;50.892;4.702;2024-02-26T02:57:29;1.43;;;1.00;;
30247;SDS011;17063;50.892;4.702;2024-02-26T02:59:56;1.33;;;1.00;;
30247;SDS011;17063;50.892;4.702;2024-02-26T03:02:23;0.93;;;0.93;;
30247;SDS011;17063;50.892;4.702;2024-02-26T03:04:53;2.27;;;0.90;;
30247;SDS011;17063;50.892;4.702;2024-02-26T03:07:21;1.30;;;1.10;;
30247;SDS011;17063;50.892;4.702;2024-02-26T03:09:48;0.97;;;0.90;;
30247;SDS011;17063;50.892;4.702;2024-02-26T03:12:15;3.40;;;0.97;;
30247;SDS011;17063;50.892;4.702;2024-02-26T03:14:41;2.27;;;0.87;;
30247;SDS011;17063;50.892;4.702;2024-02-26T03:17:08;2.33;;;0.87;;
30247;SDS011;17063;50.892;4.702;2024-02-26T03:19:36;3.07;;;1.00;;
30247;SDS011;17063;50.892;4.702;2024-02-26T03:22:03;1.20;;;1.10;;
30247;SDS011;17063;50.892;4.702;2024-02-26T03:24:30;2.00;;;0.70;;
30247;SDS011;17063;50.892;4.702;2024-02-26T03:26:57;1.73;;;0.90;;
30247;SDS011;17063;50.892;4.702;2024-02-26T03:29:24;1.73;;;1.03;;
30247;SDS011;17063;50.892;4.702;2024-02-26T03:31:51;1.03;;;0.93;;
30247;SDS011;17063;50.892;4.702;2024-02-26T03:34:18;2.00;;;1.03;;
30247;SDS011;17063;50.892;4.702;2024-02-26T03:36:46;1.87;;;1.00;;
30247;SDS011;17063;50.892;4.702;2024-02-26T03:39:13;2.20;;;0.90;;
30247;SDS011;17063;50.892;4.702;2024-02-26T03:41:40;4.53;;;0.90;;
30247;SDS011;17063;50.892;4.702;2024-02-26T03:44:07;1.97;;;1.23;;
30247;SDS011;17063;50.892;4.702;2024-02-26T03:46:34;1.37;;;1.23;;
30247;SDS011;17063;50.892;4.702;2024-02-26T03:49:01;1.00;;;1.00;;
30247;SDS011;17063;50.892;4.702;2024-02-26T03:51:28;1.00;;;0.90;;
30247;SDS011;17063;50.892;4.702;2024-02-26T03:53:58;1.10;;;1.00;;
30247;SDS011;17063;50.892;4.702;2024-02-26T03:56:25;1.47;;;1.00;;
30247;SDS011;17063;50.892;4.702;2024-02-26T03:58:53;4.27;;;1.03;;
30247;SDS011;17063;50.892;4.702;2024-02-26T04:01:20;1.63;;;1.27;;
30247;SDS011;17063;50.892;4.702;2024-02-26T04:03:47;2.60;;;1.30;;
30247;SDS011;17063;50.892;4.702;2024-02-26T04:06:13;1.30;;;1.20;;
30247;SDS011;17063;50.892;4.702;2024-02-26T04:08:41;1.30;;;1.20;;
30247;SDS011;17063;50.892;4.702;2024-02-26T04:11:08;1.30;;;1.20;;
30247;SDS011;17063;50.892;4.702;2024-02-26T04:13:35;1.30;;;1.20;;
30247;SDS011;17063;50.892;4.702;2024-02-26T04:16:04;1.90;;;1.20;;
30247;SDS011;17063;50.892;4.702;2024-02-26T04:18:32;1.30;;;1.10;;
30247;SDS011;17063;50.892;4.702;2024-02-26T04:20:59;1.37;;;1.20;;
30247;SDS011;17063;50.892;4.702;2024-02-26T04:23:26;1.33;;;1.20;;
30247;SDS011;17063;50.892;4.702;2024-02-26T04:25:53;3.00;;;1.30;;
30247;SDS011;17063;50.892;4.702;2024-02-26T04:28:20;2.17;;;1.40;;
30247;SDS011;17063;50.892;4.702;2024-02-26T04:30:47;3.37;;;1.37;;
30247;SDS011;17063;50.892;4.702;2024-02-26T04:33:14;1.17;;;1.17;;
30247;SDS011;17063;50.892;4.702;2024-02-26T04:35:42;1.10;;;1.10;;
30247;SDS011;17063;50.892;4.702;2024-02-26T04:38:09;2.40;;;1.33;;
30247;SDS011;17063;50.892;4.702;2024-02-26T04:40:36;2.27;;;1.63;;
30247;SDS011;17063;50.892;4.702;2024-02-26T04:43:03;4.07;;;1.60;;
30247;SDS011;17063;50.892;4.702;2024-02-26T04:45:30;1.63;;;1.30;;
30247;SDS011;17063;50.892;4.702;2024-02-26T04:47:56;1.53;;;1.43;;
30247;SDS011;17063;50.892;4.702;2024-02-26T04:50:23;3.77;;;1.70;;
30247;SDS011;17063;50.892;4.702;2024-02-26T04:52:50;2.53;;;1.67;;
30247;SDS011;17063;50.892;4.702;2024-02-26T04:55:17;2.67;;;1.80;;
30247;SDS011;17063;50.892;4.702;2024-02-26T04:57:44;3.63;;;1.97;;
30247;SDS011;17063;50.892;4.702;2024-02-26T05:00:11;2.00;;;1.80;;
30247;SDS011;17063;50.892;4.702;2024-02-26T05:02:39;1.87;;;1.73;;
30247;SDS011;17063;50.892;4.702;2024-02-26T05:05:06;3.63;;;2.30;;
30247;SDS011;17063;50.892;4.702;2024-02-26T05:07:44;3.13;;;2.20;;
30247;SDS011;17063;50.892;4.702;2024-02-26T05:10:11;3.63;;;2.20;;
30247;SDS011;17063;50.892;4.702;2024-02-26T05:12:38;4.93;;;2.20;;
30247;SDS011;17063;50.892;4.702;2024-02-26T05:15:05;2.87;;;1.97;;
30247;SDS011;17063;50.892;4.702;2024-02-26T05:17:32;2.47;;;2.27;;
30247;SDS011;17063;50.892;4.702;2024-02-26T05:19:59;2.73;;;2.13;;
30247;SDS011;17063;50.892;4.702;2024-02-26T05:22:26;6.73;;;2.77;;
30247;SDS011;17063;50.892;4.702;2024-02-26T05:24:53;2.40;;;1.97;;
30247;SDS011;17063;50.892;4.702;2024-02-26T05:27:20;4.13;;;2.57;;
30247;SDS011;17063;50.892;4.702;2024-02-26T05:29:47;3.10;;;2.43;;
30247;SDS011;17063;50.892;4.702;2024-02-26T05:32:14;2.87;;;2.57;;
30247;SDS011;17063;50.892;4.702;2024-02-26T05:34:41;3.23;;;2.70;;
30247;SDS011;17063;50.892;4.702;2024-02-26T05:37:08;5.83;;;3.27;;
30247;SDS011;17063;50.892;4.702;2024-02-26T05:39:35;5.10;;;3.00;;
30247;SDS011;17063;50.892;4.702;2024-02-26T05:42:02;4.70;;;3.57;;
30247;SDS011;17063;50.892;4.702;2024-02-26T05:44:29;5.40;;;3.00;;
30247;SDS011;17063;50.892;4.702;2024-02-26T05:46:56;4.67;;;3.47;;
30247;SDS011;17063;50.892;4.702;2024-02-26T05:49:23;5.37;;;3.63;;
30247;SDS011;17063;50.892;4.702;2024-02-26T05:51:50;5.30;;;3.90;;
30247;SDS011;17063;50.892;4.702;2024-02-26T05:54:17;4.70;;;3.90;;
30247;SDS011;17063;50.892;4.702;2024-02-26T05:56:43;6.77;;;4.13;;
30247;SDS011;17063;50.892;4.702;2024-02-26T05:59:11;5.60;;;4.13;;
30247;SDS011;17063;50.892;4.702;2024-02-26T06:01:37;5.50;;;4.07;;
30247;SDS011;17063;50.892;4.702;2024-02-26T06:04:04;5.63;;;4.13;;
30247;SDS011;17063;50.892;4.702;2024-02-26T06:06:31;13.87;;;4.90;;
30247;SDS011;17063;50.892;4.702;2024-02-26T06:08:58;8.87;;;4.50;;
30247;SDS011;17063;50.892;4.702;2024-02-26T06:11:26;7.63;;;4.73;;
30247;SDS011;17063;50.892;4.702;2024-02-26T06:13:54;8.00;;;4.63;;
30247;SDS011;17063;50.892;4.702;2024-02-26T06:16:21;7.60;;;5.03;;
30247;SDS011;17063;50.892;4.702;2024-02-26T06:18:47;6.70;;;4.90;;
30247;SDS011;17063;50.892;4.702;2024-02-26T06:21:19;6.93;;;5.10;;
30247;SDS011;17063;50.892;4.702;2024-02-26T06:23:45;10.57;;;5.73;;
30247;SDS011;17063;50.892;4.702;2024-02-26T06:26:12;9.50;;;4.90;;
30247;SDS011;17063;50.892;4.702;2024-02-26T06:28:39;7.30;;;4.73;;
30247;SDS011;17063;50.892;4.702;2024-02-26T06:31:07;9.00;;;4.80;;
30247;SDS011;17063;50.892;4.702;2024-02-26T06:33:34;8.57;;;4.60;;
30247;SDS011;17063;50.892;4.702;2024-02-26T06:36:02;11.57;;;4.70;;
30247;SDS011;17063;50.892;4.702;2024-02-26T06:38:30;8.33;;;4.97;;
30247;SDS011;17063;50.892;4.702;2024-02-26T06:40:57;7.60;;;5.93;;
30247;SDS011;17063;50.892;4.702;2024-02-26T06:43:24;9.93;;;5.47;;
30247;SDS011;17063;50.892;4.702;2024-02-26T06:45:50;7.23;;;5.63;;
30247;SDS011;17063;50.892;4.702;2024-02-26T06:48:17;9.23;;;5.20;;
30247;SDS011;17063;50.892;4.702;2024-02-26T06:50:45;9.37;;;6.23;;
30247;SDS011;17063;50.892;4.702;2024-02-26T06:53:12;7.87;;;5.80;;
30247;SDS011;17063;50.892;4.702;2024-02-26T06:55:38;9.80;;;6.07;;
30247;SDS011;17063;50.892;4.702;2024-02-26T06:58:07;10.00;;;5.33;;
30247;SDS011;17063;50.892;4.702;2024-02-26T07:00:34;6.60;;;5.37;;
30247;SDS011;17063;50.892;4.702;2024-02-26T07:03:01;8.07;;;6.30;;
30247;SDS011;17063;50.892;4.702;2024-02-26T07:05:28;8.73;;;6.13;;
30247;SDS011;17063;50.892;4.702;2024-02-26T07:07:55;7.00;;;5.43;;
30247;SDS011;17063;50.892;4.702;2024-02-26T07:10:22;8.07;;;5.07;;
30247;SDS011;17063;50.892;4.702;2024-02-26T07:12:49;13.37;;;5.57;;
30247;SDS011;17063;50.892;4.702;2024-02-26T07:15:16;7.23;;;5.80;;
30247;SDS011;17063;50.892;4.702;2024-02-26T07:17:43;8.13;;;5.43;;
30247;SDS011;17063;50.892;4.702;2024-02-26T07:20:14;8.10;;;6.03;;
30247;SDS011;17063;50.892;4.702;2024-02-26T07:22:43;7.80;;;5.37;;
30247;SDS011;17063;50.892;4.702;2024-02-26T07:25:09;9.53;;;5.50;;
30247;SDS011;17063;50.892;4.702;2024-02-26T07:27:40;7.93;;;5.80;;
30247;SDS011;17063;50.892;4.702;2024-02-26T07:30:07;8.20;;;5.83;;
30247;SDS011;17063;50.892;4.702;2024-02-26T07:32:37;6.30;;;5.20;;
30247;SDS011;17063;50.892;4.702;2024-02-26T07:35:04;7.80;;;5.33;;
30247;SDS011;17063;50.892;4.702;2024-02-26T07:37:32;6.53;;;5.30;;
30247;SDS011;17063;50.892;4.702;2024-02-26T07:40:08;6.60;;;5.33;;
30247;SDS011;17063;50.892;4.702;2024-02-26T07:42:35;8.03;;;5.50;;
30247;SDS011;17063;50.892;4.702;2024-02-26T07:45:02;8.60;;;5.63;;
30247;SDS011;17063;50.892;4.702;2024-02-26T07:47:29;7.33;;;5.50;;
30247;SDS011;17063;50.892;4.702;2024-02-26T07:49:56;7.70;;;6.43;;
30247;SDS011;17063;50.892;4.702;2024-02-26T07:52:23;7.03;;;6.10;;
30247;SDS011;17063;50.892;4.702;2024-02-26T07:54:50;7.37;;;5.60;;
30247;SDS011;17063;50.892;4.702;2024-02-26T07:57:17;7.17;;;5.67;;
30247;SDS011;17063;50.892;4.702;2024-02-26T07:59:45;5.50;;;5.00;;
30247;SDS011;17063;50.892;4.702;2024-02-26T08:02:16;10.57;;;5.80;;
30247;SDS011;17063;50.892;4.702;2024-02-26T08:04:43;6.27;;;5.17;;
30247;SDS011;17063;50.892;4.702;2024-02-26T08:07:10;6.37;;;5.27;;
30247;SDS011;17063;50.892;4.702;2024-02-26T08:09:37;6.37;;;5.23;;
30247;SDS011;17063;50.892;4.702;2024-02-26T08:12:04;6.37;;;5.20;;
30247;SDS011;17063;50.892;4.702;2024-02-26T08:14:31;6.00;;;5.17;;
30247;SDS011;17063;50.892;4.702;2024-02-26T08:16:59;6.27;;;4.93;;
30247;SDS011;17063;50.892;4.702;2024-02-26T08:19:26;10.03;;;5.73;;
30247;SDS011;17063;50.892;4.702;2024-02-26T08:21:53;7.17;;;4.90;;
30247;SDS011;17063;50.892;4.702;2024-02-26T08:24:21;5.73;;;4.47;;
30247;SDS011;17063;50.892;4.702;2024-02-26T08:26:49;5.07;;;4.60;;
30247;SDS011;17063;50.892;4.702;2024-02-26T08:29:16;5.80;;;4.83;;
30247;SDS011;17063;50.892;4.702;2024-02-26T08:31:43;5.40;;;4.90;;
30247;SDS011;17063;50.892;4.702;2024-02-26T08:34:10;7.33;;;5.17;;
30247;SDS011;17063;50.892;4.702;2024-02-26T08:36:37;5.10;;;4.60;;
30247;SDS011;17063;50.892;4.702;2024-02-26T08:39:04;5.87;;;5.13;;
30247;SDS011;17063;50.892;4.702;2024-02-26T08:41:31;5.37;;;4.87;;
30247;SDS011;17063;50.892;4.702;2024-02-26T08:43:58;5.90;;;4.87;;
30247;SDS011;17063;50.892;4.702;2024-02-26T08:46:25;10.23;;;5.00;;
30247;SDS011;17063;50.892;4.702;2024-02-26T08:48:52;10.17;;;5.83;;
30247;SDS011;17063;50.892;4.702;2024-02-26T08:51:21;5.40;;;4.90;;
30247;SDS011;17063;50.892;4.702;2024-02-26T08:53:48;6.67;;;5.40;;
30247;SDS011;17063;50.892;4.702;2024-02-26T08:56:16;4.97;;;4.57;;
30247;SDS011;17063;50.892;4.702;2024-02-26T08:58:45;5.20;;;4.53;;
30247;SDS011;17063;50.892;4.702;2024-02-26T09:01:15;5.97;;;4.77;;
30247;SDS011;17063;50.892;4.702;2024-02-26T09:03:42;6.53;;;5.43;;
30247;SDS011;17063;50.892;4.702;2024-02-26T09:06:10;5.90;;;5.07;;
30247;SDS011;17063;50.892;4.702;2024-02-26T09:08:38;5.77;;;4.53;;
30247;SDS011;17063;50.892;4.702;2024-02-26T09:11:05;6.80;;;5.03;;
30247;SDS011;17063;50.892;4.702;2024-02-26T09:13:32;6.20;;;4.77;;
30247;SDS011;17063;50.892;4.702;2024-02-26T09:15:59;7.47;;;5.70;;
30247;SDS011;17063;50.892;4.702;2024-02-26T09:18:26;9.30;;;5.40;;
30247;SDS011;17063;50.892;4.702;2024-02-26T09:20:55;5.97;;;5.17;;
30247;SDS011;17063;50.892;4.702;2024-02-26T09:23:22;5.63;;;4.80;;
30247;SDS011;17063;50.892;4.702;2024-02-26T09:25:49;6.43;;;5.03;;
30247;SDS011;17063;50.892;4.702;2024-02-26T09:28:16;5.73;;;4.90;;
30247;SDS011;17063;50.892;4.702;2024-02-26T09:30:46;8.43;;;4.97;;
30247;SDS011;17063;50.892;4.702;2024-02-26T09:33:13;5.67;;;4.37;;
30247;SDS011;17063;50.892;4.702;2024-02-26T09:35:40;7.70;;;4.87;;
30247;SDS011;17063;50.892;4.702;2024-02-26T09:38:08;6.37;;;4.87;;
30247;SDS011;17063;50.892;4.702;2024-02-26T09:40:35;6.33;;;4.47;;
30247;SDS011;17063;50.892;4.702;2024-02-26T09:43:04;6.33;;;4.70;;
30247;SDS011;17063;50.892;4.702;2024-02-26T09:45:32;5.17;;;4.43;;
30247;SDS011;17063;50.892;4.702;2024-02-26T09:48:00;6.60;;;4.90;;
30247;SDS011;17063;50.892;4.702;2024-02-26T09:50:28;7.70;;;5.23;;
30247;SDS011;17063;50.892;4.702;2024-02-26T09:52:55;5.60;;;4.83;;
30247;SDS011;17063;50.892;4.702;2024-02-26T09:55:24;6.23;;;4.50;;
30247;SDS011;17063;50.892;4.702;2024-02-26T09:57:51;6.57;;;4.30;;
30247;SDS011;17063;50.892;4.702;2024-02-26T10:00:19;4.93;;;4.43;;
30247;SDS011;17063;50.892;4.702;2024-02-26T10:02:47;4.97;;;3.63;;
30247;SDS011;17063;50.892;4.702;2024-02-26T10:05:18;6.67;;;4.33;;
30247;SDS011;17063;50.892;4.702;2024-02-26T10:07:46;5.90;;;3.93;;
30247;SDS011;17063;50.892;4.702;2024-02-26T10:10:13;4.90;;;4.40;;
30247;SDS011;17063;50.892;4.702;2024-02-26T10:12:41;4.77;;;4.37;;
30247;SDS011;17063;50.892;4.702;2024-02-26T10:15:09;9.17;;;4.00;;
30247;SDS011;17063;50.892;4.702;2024-02-26T10:17:37;4.20;;;3.60;;
30247;SDS011;17063;50.892;4.702;2024-02-26T10:20:18;5.10;;;4.47;;
30247;SDS011;17063;50.892;4.702;2024-02-26T10:22:51;4.80;;;4.13;;
30247;SDS011;17063;50.892;4.702;2024-02-26T10:25:19;6.63;;;4.03;;
30247;SDS011;17063;50.892;4.702;2024-02-26T10:27:46;5.40;;;4.17;;
30247;SDS011;17063;50.892;4.702;2024-02-26T10:30:18;7.83;;;5.03;;
30247;SDS011;17063;50.892;4.702;2024-02-26T10:32:46;5.33;;;4.53;;
30247;SDS011;17063;50.892;4.702;2024-02-26T10:35:15;4.13;;;3.77;;
30247;SDS011;17063;50.892;4.702;2024-02-26T10:37:48;5.43;;;4.60;;
30247;SDS011;17063;50.892;4.702;2024-02-26T10:40:16;4.80;;;4.30;;
30247;SDS011;17063;50.892;4.702;2024-02-26T10:42:46;6.60;;;4.60;;
30247;SDS011;17063;50.892;4.702;2024-02-26T10:45:13;4.83;;;4.33;;
30247;SDS011;17063;50.892;4.702;2024-02-26T10:47:40;6.33;;;4.90;;
30247;SDS011;17063;50.892;4.702;2024-02-26T10:50:12;5.00;;;4.53;;
30247;SDS011;17063;50.892;4.702;2024-02-26T10:52:39;5.03;;;4.37;;
30247;SDS011;17063;50.892;4.702;2024-02-26T10:55:07;4.67;;;3.83;;
30247;SDS011;17063;50.892;4.702;2024-02-26T10:57:40;4.30;;;3.73;;
30247;SDS011;17063;50.892;4.702;2024-02-26T11:00:10;4.77;;;3.97;;
30247;SDS011;17063;50.892;4.702;2024-02-26T11:02:41;3.87;;;3.47;;
30247;SDS011;17063;50.892;4.702;2024-02-26T11:05:12;3.97;;;3.53;;
30247;SDS011;17063;50.892;4.702;2024-02-26T11:07:39;4.33;;;3.60;;
30247;SDS011;17063;50.892;4.702;2024-02-26T11:10:08;3.47;;;3.17;;
30247;SDS011;17063;50.892;4.702;2024-02-26T11:12:39;4.27;;;3.23;;
30247;SDS011;17063;50.892;4.702;2024-02-26T11:15:08;4.00;;;3.60;;
30247;SDS011;17063;50.892;4.702;2024-02-26T11:17:35;3.53;;;3.20;;
30247;SDS011;17063;50.892;4.702;2024-02-26T11:20:05;3.60;;;3.30;;
30247;SDS011;17063;50.892;4.702;2024-02-26T11:22:36;3.73;;;2.97;;
30247;SDS011;17063;50.892;4.702;2024-02-26T11:25:04;3.30;;;2.97;;
30247;SDS011;17063;50.892;4.702;2024-02-26T11:27:33;2.73;;;2.53;;
30247;SDS011;17063;50.892;4.702;2024-02-26T11:30:16;3.77;;;2.77;;
30247;SDS011;17063;50.892;4.702;2024-02-26T11:32:44;4.03;;;3.07;;
30247;SDS011;17063;50.892;4.702;2024-02-26T11:35:13;3.70;;;3.40;;
30247;SDS011;17063;50.892;4.702;2024-02-26T11:37:41;3.10;;;2.90;;
30247;SDS011;17063;50.892;4.702;2024-02-26T11:40:20;4.37;;;3.27;;
30247;SDS011;17063;50.892;4.702;2024-02-26T11:42:48;5.00;;;3.10;;
30247;SDS011;17063;50.892;4.702;2024-02-26T11:48:13;3.73;;;2.60;;
30247;SDS011;17063;50.892;4.702;2024-02-26T11:50:54;3.20;;;2.90;;
30247;SDS011;17063;50.892;4.702;2024-02-26T11:53:23;3.17;;;2.90;;
30247;SDS011;17063;50.892;4.702;2024-02-26T11:58:46;2.93;;;2.70;;
30247;SDS011;17063;50.892;4.702;2024-02-26T12:04:06;3.47;;;3.10;;
30247;SDS011;17063;50.892;4.702;2024-02-26T12:06:41;2.80;;;2.60;;
30247;SDS011;17063;50.892;4.702;2024-02-26T12:12:18;3.60;;;2.90;;
30247;SDS011;17063;50.892;4.702;2024-02-26T12:14:52;3.40;;;3.10;;
30247;SDS011;17063;50.892;4.702;2024-02-26T12:17:21;3.00;;;2.80;;
30247;SDS011;17063;50.892;4.702;2024-02-26T12:19:49;3.67;;;3.37;;
30247;SDS011;17063;50.892;4.702;2024-02-26T12:22:23;4.07;;;2.93;;
30247;SDS011;17063;50.892;4.702;2024-02-26T12:24:58;4.70;;;3.23;;
30247;SDS011;17063;50.892;4.702;2024-02-26T12:27:27;3.50;;;3.20;;
30247;SDS011;17063;50.892;4.702;2024-02-26T12:29:55;4.43;;;2.90;;
30247;SDS011;17063;50.892;4.702;2024-02-26T12:32:22;3.17;;;2.87;;
30247;SDS011;17063;50.892;4.702;2024-02-26T12:34:50;4.13;;;2.90;;
30247;SDS011;17063;50.892;4.702;2024-02-26T12:37:17;4.33;;;2.83;;
30247;SDS011;17063;50.892;4.702;2024-02-26T12:39:44;4.27;;;3.00;;
30247;SDS011;17063;50.892;4.702;2024-02-26T12:42:12;3.50;;;3.20;;
30247;SDS011;17063;50.892;4.702;2024-02-26T12:44:39;3.40;;;3.10;;
30247;SDS011;17063;50.892;4.702;2024-02-26T12:47:06;3.17;;;2.97;;
30247;SDS011;17063;50.892;4.702;2024-02-26T12:49:34;4.90;;;2.90;;
30247;SDS011;17063;50.892;4.702;2024-02-26T12:52:02;2.70;;;2.50;;
30247;SDS011;17063;50.892;4.702;2024-02-26T12:54:46;3.20;;;2.80;;
30247;SDS011;17063;50.892;4.702;2024-02-26T12:57:13;4.97;;;2.93;;
30247;SDS011;17063;50.892;4.702;2024-02-26T12:59:43;4.23;;;3.10;;
30247;SDS011;17063;50.892;4.702;2024-02-26T13:02:12;4.90;;;3.23;;
30247;SDS011;17063;50.892;4.702;2024-02-26T13:04:41;3.33;;;2.70;;
30247;SDS011;17063;50.892;4.702;2024-02-26T13:07:08;3.13;;;2.93;;
30247;SDS011;17063;50.892;4.702;2024-02-26T13:09:35;4.27;;;3.47;;
30247;SDS011;17063;50.892;4.702;2024-02-26T13:12:03;3.47;;;3.07;;
30247;SDS011;17063;50.892;4.702;2024-02-26T13:14:37;5.13;;;4.07;;
30247;SDS011;17063;50.892;4.702;2024-02-26T13:17:05;4.70;;;3.40;;
30247;SDS011;17063;50.892;4.702;2024-02-26T13:19:32;3.63;;;3.20;;
30247;SDS011;17063;50.892;4.702;2024-02-26T13:22:05;7.50;;;5.00;;
30247;SDS011;17063;50.892;4.702;2024-02-26T13:24:35;7.07;;;4.30;;
30247;SDS011;17063;50.892;4.702;2024-02-26T13:27:05;5.27;;;3.80;;
30247;SDS011;17063;50.892;4.702;2024-02-26T13:29:36;4.23;;;3.23;;
30247;SDS011;17063;50.892;4.702;2024-02-26T13:32:03;5.17;;;4.43;;
30247;SDS011;17063;50.892;4.702;2024-02-26T13:34:33;5.97;;;3.83;;
30247;SDS011;17063;50.892;4.702;2024-02-26T13:37:02;5.90;;;3.90;;
30247;SDS011;17063;50.892;4.702;2024-02-26T13:39:30;4.43;;;3.80;;
30247;SDS011;17063;50.892;4.702;2024-02-26T13:41:57;4.43;;;3.97;;
30247;SDS011;17063;50.892;4.702;2024-02-26T13:44:24;4.33;;;3.93;;
30247;SDS011;17063;50.892;4.702;2024-02-26T13:46:51;9.03;;;4.73;;
30247;SDS011;17063;50.892;4.702;2024-02-26T13:49:18;5.40;;;4.23;;
30247;SDS011;17063;50.892;4.702;2024-02-26T13:51:46;5.73;;;4.60;;
30247;SDS011;17063;50.892;4.702;2024-02-26T13:54:14;5.97;;;4.70;;
30247;SDS011;17063;50.892;4.702;2024-02-26T13:56:44;6.20;;;5.13;;
30247;SDS011;17063;50.892;4.702;2024-02-26T13:59:17;5.93;;;5.13;;
30247;SDS011;17063;50.892;4.702;2024-02-26T14:01:44;6.23;;;5.60;;
30247;SDS011;17063;50.892;4.702;2024-02-26T14:04:11;8.13;;;5.60;;
30247;SDS011;17063;50.892;4.702;2024-02-26T14:06:52;6.27;;;5.17;;
30247;SDS011;17063;50.892;4.702;2024-02-26T14:09:21;6.53;;;5.20;;
30247;SDS011;17063;50.892;4.702;2024-02-26T14:12:01;8.07;;;4.87;;
30247;SDS011;17063;50.892;4.702;2024-02-26T14:14:34;8.93;;;5.97;;
30247;SDS011;17063;50.892;4.702;2024-02-26T14:17:08;8.43;;;5.10;;
30247;SDS011;17063;50.892;4.702;2024-02-26T14:19:36;9.17;;;5.87;;
30247;SDS011;17063;50.892;4.702;2024-02-26T14:22:06;8.23;;;5.73;;
30247;SDS011;17063;50.892;4.702;2024-02-26T14:24:34;8.10;;;5.60;;
30247;SDS011;17063;50.892;4.702;2024-02-26T14:27:09;7.97;;;5.80;;
30247;SDS011;17063;50.892;4.702;2024-02-26T14:29:58;7.23;;;5.60;;
30247;SDS011;17063;50.892;4.702;2024-02-26T14:32:25;8.50;;;5.90;;
30247;SDS011;17063;50.892;4.702;2024-02-26T14:35:00;8.93;;;5.63;;
30247;SDS011;17063;50.892;4.702;2024-02-26T14:37:28;8.07;;;5.80;;
30247;SDS011;17063;50.892;4.702;2024-02-26T14:39:59;7.40;;;5.77;;
30247;SDS011;17063;50.892;4.702;2024-02-26T14:42:27;8.17;;;5.37;;
30247;SDS011;17063;50.892;4.702;2024-02-26T14:44:54;8.70;;;5.83;;
30247;SDS011;17063;50.892;4.702;2024-02-26T14:47:21;8.80;;;6.03;;
30247;SDS011;17063;50.892;4.702;2024-02-26T14:49:49;6.77;;;5.37;;
30247;SDS011;17063;50.892;4.702;2024-02-26T14:52:18;7.57;;;5.10;;
30247;SDS011;17063;50.892;4.702;2024-02-26T14:54:45;7.80;;;5.17;;
30247;SDS011;17063;50.892;4.702;2024-02-26T14:57:12;6.57;;;4.67;;
30247;SDS011;17063;50.892;4.702;2024-02-26T14:59:40;8.43;;;4.77;;
30247;SDS011;17063;50.892;4.702;2024-02-26T15:02:07;11.20;;;5.97;;
30247;SDS011;17063;50.892;4.702;2024-02-26T15:04:36;9.57;;;5.87;;